Time;durP1;ratioP1;P1;durP2;ratioP2;P2;SDS_P1;SDS_P2;PMS_P1;PMS_P2;Temp;Humidity;BMP_temperature;BMP_pressure;BME280_temperature;BME280_humidity;BME280_pressure;Samples;Min_cycle;Max_cycle;Signal;HPM_P1;HPM_P2
2022/04/17 00:00:53;;;;;;;10.57;7.60;;;;;;;7.55;48.87;102928.19;5110368;28;20024;-76
2022/04/17 00:03:21;;;;;;;9.50;7.68;;;;;;;7.55;49.15;102940.31;5110893;28;20020;-76
2022/04/17 00:05:48;;;;;;;10.63;7.45;;;;;;;7.46;51.13;102921.09;5108410;28;20044;-77
2022/04/17 00:08:13;;;;;;;11.35;7.47;;;;;;;7.44;48.30;102927.09;5111499;28;20066;-77
2022/04/17 00:10:38;;;;;;;11.80;7.72;;;;;;;7.37;51.37;102920.00;5114344;28;20073;-76
2022/04/17 00:13:04;;;;;;;12.60;8.05;;;;;;;7.35;48.81;102925.16;5104831;28;20487;-77
2022/04/17 00:15:29;;;;;;;12.23;7.45;;;;;;;7.31;47.16;102922.47;5095449;28;20024;-76
2022/04/17 00:17:55;;;;;;;14.18;7.57;;;;;;;7.31;48.67;102925.94;5093715;28;20064;-76
2022/04/17 00:20:20;;;;;;;12.77;7.80;;;;;;;7.24;50.26;102919.72;5111521;28;20024;-76
2022/04/17 00:22:46;;;;;;;11.05;7.45;;;;;;;7.24;48.56;102922.31;5112488;28;20098;-76
2022/04/17 00:25:12;;;;;;;9.82;6.95;;;;;;;7.25;48.52;102923.19;5098521;28;20528;-76
2022/04/17 00:27:41;;;;;;;10.10;6.65;;;;;;;7.23;49.21;102930.06;5103731;28;20020;-76
2022/04/17 00:30:09;;;;;;;8.13;6.47;;;;;;;7.21;48.33;102924.84;5095228;28;20027;-77
2022/04/17 00:32:36;;;;;;;9.93;6.75;;;;;;;7.19;47.86;102923.03;5093739;28;20494;-76
2022/04/17 00:35:04;;;;;;;8.35;6.63;;;;;;;7.21;48.10;102924.84;5107535;28;20483;-77
2022/04/17 00:37:29;;;;;;;15.43;6.97;;;;;;;7.15;48.81;102924.69;5106541;28;20043;-76
2022/04/17 00:39:54;;;;;;;9.30;6.43;;;;;;;7.11;49.44;102922.00;5111955;28;20020;-76
2022/04/17 00:42:20;;;;;;;9.95;6.47;;;;;;;7.07;49.52;102912.38;5115130;28;20038;-76
2022/04/17 00:44:45;;;;;;;8.98;6.75;;;;;;;6.99;48.66;102917.38;5114694;28;20019;-77
2022/04/17 00:47:15;;;;;;;8.45;5.95;;;;;;;6.91;47.78;102917.19;5100296;28;20028;-76
2022/04/17 00:49:41;;;;;;;11.02;6.53;;;;;;;6.92;49.32;102916.34;5094280;28;20421;-76
2022/04/17 00:52:06;;;;;;;11.80;6.72;;;;;;;6.88;47.89;102924.91;5109094;28;20054;-76
2022/04/17 00:54:33;;;;;;;9.55;6.28;;;;;;;6.84;50.74;102911.84;5099685;28;20120;-76
2022/04/17 00:56:59;;;;;;;7.82;6.32;;;;;;;6.80;51.40;102911.75;5107704;28;20523;-76
2022/04/17 00:59:25;;;;;;;10.75;6.47;;;;;;;6.76;49.34;102920.25;5101425;28;20120;-76
2022/04/17 01:01:51;;;;;;;13.52;6.70;;;;;;;6.73;51.92;102925.38;5113083;28;20061;-76
2022/04/17 01:04:17;;;;;;;9.80;6.22;;;;;;;6.70;51.01;102914.03;5112456;28;20529;-76
2022/04/17 01:06:42;;;;;;;11.00;6.18;;;;;;;6.64;50.03;102914.78;5094866;28;20040;-76
2022/04/17 01:09:07;;;;;;;8.50;6.00;;;;;;;6.63;51.91;102912.13;5108111;28;20051;-76
2022/04/17 01:11:38;;;;;;;8.32;5.95;;;;;;;6.60;50.42;102912.06;5100490;28;20532;-76
2022/04/17 01:14:05;;;;;;;8.15;5.55;;;;;;;6.52;50.30;102907.56;5109893;28;20039;-76
2022/04/17 01:16:30;;;;;;;8.90;5.63;;;;;;;6.52;49.88;102906.69;5112656;28;20107;-76
2022/04/17 01:19:12;;;;;;;8.68;6.10;;;;;;;6.46;49.79;102902.22;5095843;28;20048;-76
2022/04/17 01:21:42;;;;;;;8.32;6.10;;;;;;;6.39;49.90;102904.63;5112026;28;20360;-76
2022/04/17 01:26:57;;;;;;;12.15;5.85;;;;;;;6.38;50.73;102911.50;5112113;28;20093;-76
2022/04/17 01:29:34;;;;;;;9.95;5.80;;;;;;;6.36;50.40;102912.31;5109242;28;20031;-76
2022/04/17 01:32:01;;;;;;;8.10;5.97;;;;;;;6.31;51.26;102920.84;5113249;28;20064;-76
2022/04/17 01:34:27;;;;;;;9.02;5.40;;;;;;;6.28;49.54;102920.75;5113165;28;20084;-76
2022/04/17 01:36:53;;;;;;;8.68;6.28;;;;;;;6.19;50.29;102917.91;5111897;28;20024;-76
2022/04/17 01:39:18;;;;;;;8.25;5.55;;;;;;;6.18;50.18;102916.16;5093700;28;20035;-76
2022/04/17 01:41:47;;;;;;;7.63;5.38;;;;;;;6.16;51.76;102917.81;5111262;28;20544;-76
2022/04/17 01:44:12;;;;;;;7.63;5.55;;;;;;;6.11;50.96;102919.38;5113047;28;20026;-76
2022/04/17 01:46:38;;;;;;;8.55;5.50;;;;;;;6.12;52.21;102915.09;5100370;28;20020;-76
2022/04/17 01:49:06;;;;;;;6.70;5.38;;;;;;;6.01;50.70;102920.81;5111633;28;20066;-76
2022/04/17 01:51:38;;;;;;;8.07;5.35;;;;;;;6.01;51.42;102917.38;5112498;28;20480;-76
2022/04/17 01:54:04;;;;;;;7.43;5.50;;;;;;;5.98;53.26;102914.69;5093219;28;20081;-76
2022/04/17 01:56:29;;;;;;;9.18;5.53;;;;;;;5.94;53.68;102912.84;5093992;28;20031;-76
2022/04/17 01:58:54;;;;;;;9.88;5.90;;;;;;;5.89;53.10;102909.25;5098089;28;20032;-76
2022/04/17 02:01:20;;;;;;;10.45;6.07;;;;;;;5.89;53.97;102919.59;5110157;28;20063;-76
2022/04/17 02:03:45;;;;;;;7.18;5.70;;;;;;;5.83;53.96;102910.81;5100678;28;20036;-76
2022/04/17 02:06:11;;;;;;;8.68;5.68;;;;;;;5.81;54.13;102909.88;5107617;28;20070;-76
2022/04/17 02:08:36;;;;;;;8.45;6.05;;;;;;;5.77;52.39;102908.03;5101466;28;20472;-76
2022/04/17 02:11:02;;;;;;;8.98;6.00;;;;;;;5.70;54.18;102908.69;5106645;28;20032;-76
2022/04/17 02:13:28;;;;;;;8.75;6.38;;;;;;;5.66;53.83;102911.13;5099542;28;20031;-76
2022/04/17 02:15:56;;;;;;;8.32;6.20;;;;;;;5.61;52.96;102906.69;5112737;28;20027;-76
2022/04/17 02:18:21;;;;;;;7.43;6.05;;;;;;;5.53;54.16;102910.78;5102846;28;20020;-76
2022/04/17 02:20:47;;;;;;;7.40;5.78;;;;;;;5.45;54.41;102907.06;5092205;28;20119;-76
2022/04/17 02:23:13;;;;;;;10.05;6.00;;;;;;;5.45;55.01;102916.53;5101016;28;20027;-76
2022/04/17 02:25:39;;;;;;;7.50;5.72;;;;;;;5.39;55.18;102907.78;5110602;28;20031;-76
2022/04/17 02:28:04;;;;;;;8.98;6.15;;;;;;;5.36;55.29;102910.25;5092557;28;20020;-76
2022/04/17 02:30:30;;;;;;;7.55;5.78;;;;;;;5.31;56.14;102901.47;5092207;28;20024;-76
2022/04/17 02:32:55;;;;;;;8.05;5.53;;;;;;;5.33;55.76;102906.69;5090790;28;20024;-76
2022/04/17 02:35:20;;;;;;;9.00;6.10;;;;;;;5.26;55.85;102905.59;5108301;28;20042;-76
2022/04/17 02:37:46;;;;;;;9.07;5.93;;;;;;;5.26;56.83;102905.59;5106826;28;20027;-76
2022/04/17 02:40:11;;;;;;;8.40;5.65;;;;;;;5.22;55.30;102903.75;5100632;28;20031;-76
2022/04/17 02:42:37;;;;;;;8.60;5.65;;;;;;;5.17;55.51;102905.34;5093907;28;20036;-76
2022/04/17 02:45:03;;;;;;;7.72;5.93;;;;;;;5.10;55.29;102905.94;5091324;28;20054;-76
2022/04/17 02:47:43;;;;;;;9.80;5.32;;;;;;;5.02;54.98;102899.66;5092143;28;20024;-75
2022/04/17 02:50:15;;;;;;;6.95;5.68;;;;;;;5.00;57.55;102893.56;5112927;28;20026;-76
2022/04/17 02:52:41;;;;;;;7.07;5.43;;;;;;;4.96;55.91;102896.88;5106241;28;20172;-76
2022/04/17 02:55:07;;;;;;;8.30;5.60;;;;;;;4.89;56.78;102896.69;5092187;28;20277;-76
2022/04/17 02:57:32;;;;;;;8.40;5.63;;;;;;;4.88;56.91;102897.50;5102234;28;20535;-76
2022/04/17 02:59:58;;;;;;;9.65;5.40;;;;;;;4.82;56.89;102899.03;5091109;28;20038;-76
2022/04/17 03:07:53;;;;;;;8.70;5.47;;;;;;;4.73;57.58;102891.84;5092628;28;20043;-76
2022/04/17 03:10:18;;;;;;;11.30;5.32;;;;;;;4.68;57.97;102886.53;5111781;28;20098;-76
2022/04/17 03:12:44;;;;;;;9.38;6.15;;;;;;;4.64;59.16;102884.69;5111387;28;20063;-76
2022/04/17 03:15:09;;;;;;;8.32;5.68;;;;;;;4.60;60.18;102881.91;5111644;28;20068;-76
2022/04/17 03:17:35;;;;;;;7.30;5.90;;;;;;;4.58;60.36;102886.16;5108806;28;20054;-76
2022/04/17 03:20:00;;;;;;;9.48;5.82;;;;;;;4.52;60.65;102870.47;5107376;28;20038;-75
2022/04/17 03:22:26;;;;;;;8.93;5.60;;;;;;;4.46;59.28;102872.00;5112388;28;20016;-76
2022/04/17 03:24:52;;;;;;;8.77;5.35;;;;;;;4.42;58.68;102875.31;5111656;28;20031;-76
2022/04/17 03:27:17;;;;;;;9.18;5.55;;;;;;;4.39;59.51;102875.19;5111580;28;20035;-76
2022/04/17 03:29:43;;;;;;;8.13;5.03;;;;;;;4.34;59.42;102870.69;5110874;28;20032;-76
2022/04/17 03:32:08;;;;;;;8.02;5.57;;;;;;;4.34;59.12;102873.28;5110317;28;20360;-76
2022/04/17 03:34:33;;;;;;;7.03;5.38;;;;;;;4.31;59.16;102874.03;5110517;28;20028;-76
2022/04/17 03:36:59;;;;;;;7.03;5.65;;;;;;;4.30;61.04;102871.41;5112152;28;20383;-76
2022/04/17 03:39:25;;;;;;;8.25;5.55;;;;;;;4.26;59.58;102867.84;5108740;28;20023;-76
2022/04/17 03:41:51;;;;;;;7.75;5.05;;;;;;;4.23;58.59;102862.59;5111092;28;20408;-76
2022/04/17 03:44:17;;;;;;;6.80;5.18;;;;;;;4.20;60.10;102863.34;5102311;28;20144;-76
2022/04/17 03:46:43;;;;;;;6.75;5.32;;;;;;;4.18;61.25;102864.97;5095527;28;20059;-76
2022/04/17 03:49:08;;;;;;;6.93;4.88;;;;;;;4.20;60.27;102865.06;5104440;28;20443;-76
2022/04/17 03:51:33;;;;;;;7.88;4.90;;;;;;;4.20;58.50;102865.06;5115605;28;20566;-76
2022/04/17 03:53:59;;;;;;;9.50;5.78;;;;;;;4.08;61.01;102850.00;5115779;28;20046;-76
2022/04/17 03:56:24;;;;;;;8.45;5.30;;;;;;;4.16;62.17;102864.06;5113511;28;20027;-76
2022/04/17 03:58:49;;;;;;;9.07;5.68;;;;;;;4.11;60.99;102860.44;5105833;28;20393;-76
2022/04/17 04:01:14;;;;;;;7.32;5.10;;;;;;;4.09;60.43;102869.84;5095579;28;20042;-76
2022/04/17 04:03:40;;;;;;;11.02;5.93;;;;;;;4.06;61.13;102863.69;5094424;28;20086;-75
2022/04/17 04:06:05;;;;;;;8.98;5.30;;;;;;;4.02;61.54;102864.41;5095225;28;20016;-76
2022/04/17 04:08:30;;;;;;;8.93;4.90;;;;;;;3.99;61.07;102865.19;5094833;28;20032;-76
2022/04/17 04:10:56;;;;;;;7.80;5.60;;;;;;;3.96;60.90;102860.78;5094304;28;20035;-75
2022/04/17 04:13:21;;;;;;;8.05;5.57;;;;;;;3.92;62.98;102851.19;5114810;28;20042;-75
2022/04/17 04:15:46;;;;;;;19.60;6.40;;;;;;;3.92;62.84;102856.34;5115160;28;20024;-76
2022/04/17 04:18:12;;;;;;;8.02;5.75;;;;;;;3.88;61.95;102857.03;5113136;28;20524;-75
2022/04/17 04:20:37;;;;;;;8.93;6.13;;;;;;;3.87;61.80;102852.72;5114652;28;20019;-75
2022/04/17 04:23:02;;;;;;;9.90;6.28;;;;;;;3.86;62.12;102847.47;5114710;28;20544;-75
2022/04/17 04:25:28;;;;;;;7.97;6.05;;;;;;;3.84;62.16;102842.28;5114421;28;20116;-75
2022/04/17 04:30:54;;;;;;;8.75;5.65;;;;;;;3.74;63.11;102835.03;5091399;28;20040;-75
2022/04/17 04:33:19;;;;;;;11.32;5.88;;;;;;;3.71;62.27;102838.38;5110548;28;20032;-75
2022/04/17 04:35:44;;;;;;;10.82;6.07;;;;;;;3.67;62.92;102839.09;5112816;27;20031;-75
2022/04/17 04:38:09;;;;;;;8.90;6.00;;;;;;;3.59;61.79;102829.28;5114191;28;20023;-76
2022/04/17 04:40:35;;;;;;;8.73;5.55;;;;;;;3.64;63.16;102836.38;5114292;28;20023;-76
2022/04/17 04:43:01;;;;;;;8.50;5.50;;;;;;;3.63;62.47;102837.22;5114998;28;20030;-75
2022/04/17 04:48:12;;;;;;;8.43;5.93;;;;;;;3.57;64.73;102830.97;5096068;28;20181;-76
2022/04/17 04:50:38;;;;;;;8.23;5.28;;;;;;;3.59;63.96;102834.44;5094288;28;20459;-76
2022/04/17 04:53:03;;;;;;;7.50;5.43;;;;;;;3.57;65.34;102828.38;5093495;28;20048;-75
2022/04/17 04:55:28;;;;;;;9.38;5.45;;;;;;;3.60;63.47;102831.06;5093381;28;20026;-75
2022/04/17 04:57:54;;;;;;;7.68;5.60;;;;;;;3.62;64.72;102832.00;5107928;28;20074;-76
2022/04/17 05:00:20;;;;;;;8.32;5.40;;;;;;;3.62;63.21;102834.56;5110612;28;20031;-76
2022/04/17 05:02:45;;;;;;;11.45;5.95;;;;;;;3.62;64.29;102832.88;5114076;28;20132;-76
2022/04/17 05:05:11;;;;;;;8.88;5.30;;;;;;;3.63;65.19;102833.72;5114965;28;20023;-75
2022/04/17 05:07:37;;;;;;;7.63;5.75;;;;;;;3.65;64.94;102845.00;5113802;28;20027;-75
2022/04/17 05:10:07;;;;;;;9.57;6.10;;;;;;;3.65;66.85;102837.25;5112139;28;20525;-75
2022/04/17 05:12:33;;;;;;;10.68;5.72;;;;;;;3.66;65.03;102837.34;5108280;28;20055;-75
2022/04/17 05:14:59;;;;;;;10.88;5.65;;;;;;;3.66;65.12;102842.50;5105435;28;20028;-76
2022/04/17 05:17:25;;;;;;;7.53;5.72;;;;;;;3.68;66.44;102847.69;5093735;28;20396;-75
2022/04/17 05:19:50;;;;;;;7.72;5.68;;;;;;;3.72;65.00;102841.81;5096247;28;20030;-76
2022/04/17 05:22:16;;;;;;;9.13;6.20;;;;;;;3.74;64.74;102838.47;5113678;28;20076;-76
2022/04/17 05:24:45;;;;;;;8.68;6.18;;;;;;;3.80;65.26;102849.84;5113860;28;20019;-75
2022/04/17 05:27:12;;;;;;;8.63;6.18;;;;;;;3.79;65.13;102835.19;5113783;28;20028;-76
2022/04/17 05:29:37;;;;;;;8.93;6.20;;;;;;;3.92;66.50;102845.13;5106623;28;20041;-76
2022/04/17 05:32:03;;;;;;;9.10;6.28;;;;;;;3.95;67.52;102835.78;5093681;28;20032;-76
2022/04/17 05:34:28;;;;;;;7.85;5.57;;;;;;;3.97;65.49;102841.88;5093250;28;20471;-76
2022/04/17 05:36:53;;;;;;;11.27;6.13;;;;;;;4.04;65.75;102839.53;5093325;28;20376;-76
2022/04/17 05:39:19;;;;;;;8.40;5.93;;;;;;;4.09;67.21;102841.47;5093751;28;20036;-75
2022/04/17 05:41:45;;;;;;;10.13;5.88;;;;;;;4.15;65.72;102846.84;5092306;28;20059;-76
2022/04/17 05:44:12;;;;;;;7.25;5.65;;;;;;;4.19;64.15;102834.91;5111463;28;20028;-76
2022/04/17 05:46:38;;;;;;;9.00;6.20;;;;;;;4.27;64.36;102837.75;5113443;28;20035;-76
2022/04/17 05:49:04;;;;;;;10.10;5.97;;;;;;;4.34;63.82;102840.56;5111924;28;20024;-76
2022/04/17 05:51:32;;;;;;;8.85;6.80;;;;;;;4.44;64.55;102845.22;5113054;28;20087;-76
2022/04/17 05:53:59;;;;;;;9.88;6.07;;;;;;;4.53;62.75;102841.22;5112915;28;20036;-76
2022/04/17 05:56:25;;;;;;;9.82;6.10;;;;;;;4.60;62.46;102849.19;5108205;28;20036;-76
2022/04/17 05:58:50;;;;;;;11.48;6.00;;;;;;;4.64;63.22;102839.84;5092658;28;20028;-75
2022/04/17 06:01:15;;;;;;;10.38;6.20;;;;;;;4.69;63.74;102844.34;5101910;28;20050;-76
2022/04/17 06:03:40;;;;;;;9.50;6.45;;;;;;;4.71;62.85;102841.81;5112688;28;20030;-76
2022/04/17 06:06:06;;;;;;;10.40;6.25;;;;;;;4.77;64.85;102839.41;5112285;28;20026;-76
2022/04/17 06:08:31;;;;;;;8.18;6.35;;;;;;;4.84;64.75;102849.16;5092486;28;20024;-75
2022/04/17 06:10:57;;;;;;;11.07;6.68;;;;;;;4.90;62.31;102839.00;5097149;28;20074;-76
2022/04/17 06:13:22;;;;;;;11.63;6.15;;;;;;;5.00;63.18;102844.44;5111448;28;20027;-76
2022/04/17 06:15:48;;;;;;;10.30;6.28;;;;;;;5.07;62.37;102838.66;5112270;28;20464;-76
2022/04/17 06:18:13;;;;;;;9.45;5.75;;;;;;;5.17;60.40;102840.69;5094908;28;20035;-76
2022/04/17 06:20:38;;;;;;;8.13;5.28;;;;;;;5.28;59.38;102841.88;5094136;28;20435;-75
2022/04/17 06:23:04;;;;;;;7.18;5.03;;;;;;;5.39;58.94;102835.34;5112424;28;20020;-76
2022/04/17 06:25:29;;;;;;;7.00;4.72;;;;;;;5.53;58.03;102840.03;5113110;28;20374;-76
2022/04/17 06:27:56;;;;;;;7.70;5.05;;;;;;;5.66;58.23;102824.03;5111405;28;20027;-76
2022/04/17 06:30:22;;;;;;;11.38;5.22;;;;;;;5.81;56.51;102824.44;5108640;28;20040;-75
2022/04/17 06:32:48;;;;;;;7.18;4.75;;;;;;;5.95;56.46;102830.06;5092200;28;20032;-76
2022/04/17 06:35:15;;;;;;;8.38;5.05;;;;;;;6.07;55.62;102826.91;5100312;28;20164;-75
2022/04/17 06:37:55;;;;;;;9.35;5.05;;;;;;;6.08;55.42;102801.06;5091167;28;20020;-76
2022/04/17 06:40:36;;;;;;;6.47;5.18;;;;;;;6.22;57.67;102816.97;5092721;28;20028;-75
2022/04/17 06:43:05;;;;;;;6.22;4.60;;;;;;;6.38;54.69;102819.97;5104998;28;20063;-75
2022/04/17 06:45:32;;;;;;;9.40;5.13;;;;;;;6.47;54.23;102818.44;5091753;28;20024;-75
2022/04/17 06:48:13;;;;;;;6.63;4.55;;;;;;;6.55;54.22;102827.31;5099484;28;20035;-75
2022/04/17 06:50:39;;;;;;;6.03;4.40;;;;;;;6.65;54.45;102824.94;5112466;28;20020;-76
2022/04/17 06:53:04;;;;;;;7.03;4.85;;;;;;;6.71;53.87;102818.19;5110402;28;20059;-75
2022/04/17 06:55:30;;;;;;;6.80;4.72;;;;;;;6.79;52.56;102820.97;5112931;28;20119;-75
2022/04/17 06:57:55;;;;;;;6.80;5.32;;;;;;;6.82;55.00;102812.38;5111785;28;20099;-75
2022/04/17 07:00:22;;;;;;;6.43;5.13;;;;;;;6.94;53.50;102826.50;5099922;27;20024;-75
2022/04/17 07:02:48;;;;;;;8.27;4.70;;;;;;;7.02;52.28;102819.78;5112024;28;20076;-75
2022/04/17 07:05:13;;;;;;;9.52;5.82;;;;;;;7.10;54.67;102814.78;5112050;28;20036;-75
2022/04/17 07:07:39;;;;;;;8.43;5.00;;;;;;;7.20;53.36;102818.44;5112483;28;20019;-75
2022/04/17 07:10:05;;;;;;;7.88;5.38;;;;;;;7.28;52.21;102809.09;5102190;28;20388;-76
2022/04/17 07:12:31;;;;;;;6.30;5.03;;;;;;;7.34;54.84;102811.84;5104572;28;20122;-76
2022/04/17 07:14:59;;;;;;;8.60;4.95;;;;;;;7.40;52.98;102805.91;5112238;28;20095;-76
2022/04/17 07:17:35;;;;;;;6.00;4.78;;;;;;;7.51;51.21;102805.25;5107045;28;20032;-75
2022/04/17 07:20:08;;;;;;;5.70;4.72;;;;;;;7.60;52.60;102798.53;5117185;28;20035;-76
2022/04/17 07:22:35;;;;;;;9.57;5.20;;;;;;;7.69;50.76;102809.97;5106178;27;20023;-76
2022/04/17 07:25:01;;;;;;;8.32;5.47;;;;;;;7.76;50.84;102802.31;5098257;28;20032;-76
2022/04/17 07:27:40;;;;;;;7.70;5.03;;;;;;;7.84;52.75;102796.38;5098340;28;20472;-76
2022/04/17 07:30:09;;;;;;;7.43;4.75;;;;;;;7.91;50.24;102794.78;5098521;28;20476;-76
2022/04/17 07:32:34;;;;;;;8.70;5.20;;;;;;;7.91;52.31;102779.19;5102487;27;20028;-75
2022/04/17 07:35:00;;;;;;;6.75;4.63;;;;;;;8.05;50.72;102795.94;5113521;27;20051;-75
2022/04/17 07:37:26;;;;;;;7.05;4.50;;;;;;;8.13;49.83;102786.53;5108900;27;20028;-79
2022/04/17 07:39:52;;;;;;;6.88;4.97;;;;;;;8.21;49.34;102790.16;5116784;27;20022;-76
2022/04/17 07:42:19;;;;;;;7.25;4.63;;;;;;;8.29;49.70;102786.81;5117125;27;20020;-75
2022/04/17 07:44:44;;;;;;;6.00;4.45;;;;;;;8.34;48.97;102786.06;5117182;27;20015;-75
2022/04/17 07:47:10;;;;;;;5.95;4.07;;;;;;;8.40;50.11;102782.69;5119367;27;20027;-75
2022/04/17 07:49:35;;;;;;;7.90;4.80;;;;;;;8.41;49.42;102763.66;5136289;27;20023;-75
2022/04/17 07:52:00;;;;;;;7.25;4.57;;;;;;;8.59;49.79;102773.47;5114907;27;20056;-75
2022/04/17 07:54:26;;;;;;;7.03;4.55;;;;;;;8.63;48.38;102778.75;5103022;28;20051;-75
2022/04/17 07:56:52;;;;;;;6.20;4.47;;;;;;;8.72;49.08;102778.00;5118310;27;20051;-75
2022/04/17 07:59:17;;;;;;;6.18;4.85;;;;;;;8.80;48.54;102772.94;5117998;27;20069;-75
2022/04/17 08:01:45;;;;;;;7.57;4.60;;;;;;;8.88;48.45;102759.16;5113339;27;20506;-75
2022/04/17 08:04:10;;;;;;;6.85;4.90;;;;;;;8.98;48.27;102765.38;5098192;28;20049;-75
2022/04/17 08:06:36;;;;;;;6.00;4.70;;;;;;;9.11;48.88;102767.28;5098043;28;20032;-75
2022/04/17 08:09:02;;;;;;;5.95;4.60;;;;;;;9.28;48.77;102771.84;5118722;27;20069;-75
2022/04/17 08:11:28;;;;;;;7.05;4.80;;;;;;;9.36;46.63;102767.63;5100872;27;20115;-75
2022/04/17 08:13:54;;;;;;;5.57;4.05;;;;;;;9.53;45.87;102775.63;5116561;28;20016;-76
2022/04/17 08:16:19;;;;;;;6.97;4.78;;;;;;;9.65;46.40;102765.34;5115701;27;20031;-76
2022/04/17 08:18:45;;;;;;;7.22;4.82;;;;;;;9.72;48.15;102764.56;5118282;27;20413;-76
2022/04/17 08:21:10;;;;;;;5.90;5.00;;;;;;;9.76;46.03;102768.06;5103859;27;20050;-76
2022/04/17 08:23:37;;;;;;;8.23;5.10;;;;;;;9.85;45.95;102763.84;5096796;28;20039;-76
2022/04/17 08:26:03;;;;;;;6.38;5.10;;;;;;;9.92;45.84;102756.09;5097988;28;20027;-77
2022/04/17 08:28:28;;;;;;;6.07;4.45;;;;;;;10.01;47.76;102762.25;5098104;28;20024;-76
2022/04/17 08:30:55;;;;;;;6.43;4.80;;;;;;;10.17;46.65;102764.97;5094752;27;20032;-76
2022/04/17 08:33:20;;;;;;;8.02;4.57;;;;;;;10.28;46.05;102748.63;5114562;27;20094;-75
2022/04/17 08:35:46;;;;;;;6.57;4.72;;;;;;;10.37;46.18;102749.56;5112891;27;20490;-76
2022/04/17 08:38:11;;;;;;;7.55;4.68;;;;;;;10.46;45.94;102747.00;5104448;27;20124;-76
2022/04/17 08:40:38;;;;;;;5.88;4.53;;;;;;;10.63;44.28;102754.97;5100525;28;20020;-76
2022/04/17 08:43:04;;;;;;;6.38;4.47;;;;;;;10.70;43.30;102746.31;5112347;28;20028;-76
2022/04/17 08:45:29;;;;;;;7.18;4.40;;;;;;;10.77;44.00;102742.88;5112013;28;20055;-76
2022/04/17 08:47:55;;;;;;;6.43;4.60;;;;;;;10.94;45.78;102749.06;5113846;27;20078;-76
2022/04/17 08:50:21;;;;;;;7.10;4.70;;;;;;;10.95;43.53;102739.50;5107641;28;20095;-76
2022/04/17 08:52:49;;;;;;;5.97;4.05;;;;;;;11.11;41.88;102748.28;5114276;28;20077;-76
2022/04/17 08:55:15;;;;;;;6.13;4.30;;;;;;;11.25;44.02;102749.22;5114983;28;20031;-76
2022/04/17 08:57:41;;;;;;;6.20;4.60;;;;;;;11.32;43.17;102742.28;5110610;28;20135;-76
2022/04/17 09:00:10;;;;;;;6.53;4.40;;;;;;;11.51;44.58;102745.81;5111923;27;20055;-76
2022/04/17 09:02:35;;;;;;;7.63;4.55;;;;;;;11.59;43.97;102720.59;5110275;28;20019;-76
2022/04/17 09:05:06;;;;;;;5.00;4.30;;;;;;;11.79;43.89;102733.69;5113743;28;20016;-76
2022/04/17 09:07:43;;;;;;;4.90;3.83;;;;;;;11.94;42.18;102734.63;5130347;27;20039;-76
2022/04/17 09:10:08;;;;;;;5.65;3.83;;;;;;;12.05;42.20;102725.91;5129140;27;20077;-76
2022/04/17 09:12:34;;;;;;;5.10;3.72;;;;;;;12.12;39.90;102731.13;5120374;27;20028;-76
2022/04/17 09:14:59;;;;;;;4.68;3.95;;;;;;;12.18;38.68;102727.66;5109564;28;20039;-76
2022/04/17 09:17:32;;;;;;;4.38;3.55;;;;;;;12.26;40.58;102730.25;5114813;27;20027;-76
2022/04/17 09:19:58;;;;;;;9.07;3.90;;;;;;;12.38;39.57;102728.50;5120633;27;20031;-76
2022/04/17 09:22:23;;;;;;;5.50;3.92;;;;;;;12.47;39.23;102716.31;5111596;27;20076;-76
2022/04/17 09:24:48;;;;;;;4.05;3.15;;;;;;;12.66;39.23;102725.88;5129529;27;20122;-76
2022/04/17 09:27:14;;;;;;;4.22;3.15;;;;;;;12.77;38.71;102711.00;5113418;28;20067;-76
2022/04/17 09:29:39;;;;;;;4.57;3.08;;;;;;;12.89;38.76;102705.72;5111772;27;20023;-76
2022/04/17 09:32:09;;;;;;;3.75;3.20;;;;;;;13.05;39.65;102709.16;5112739;28;20041;-76
2022/04/17 09:34:52;;;;;;;5.22;3.33;;;;;;;13.19;40.09;102722.19;5113421;27;20023;-76
2022/04/17 09:37:19;;;;;;;6.00;4.25;;;;;;;13.19;37.59;102703.88;5113701;28;20015;-76
2022/04/17 09:39:45;;;;;;;5.38;4.03;;;;;;;13.28;37.26;102706.47;5112628;28;20039;-76
2022/04/17 09:42:11;;;;;;;4.63;3.95;;;;;;;13.32;36.85;102700.34;5113660;28;20094;-76
2022/04/17 09:44:37;;;;;;;6.25;4.22;;;;;;;13.41;36.78;102702.06;5113804;28;20063;-76
2022/04/17 09:47:04;;;;;;;5.63;4.05;;;;;;;13.51;37.11;102692.38;5112888;28;20575;-76
2022/04/17 09:49:29;;;;;;;6.35;4.10;;;;;;;13.56;37.05;102682.72;5113937;28;20069;-76
2022/04/17 09:52:08;;;;;;;5.40;3.92;;;;;;;13.72;37.63;102673.88;5113077;28;20075;-76
2022/04/17 09:54:35;;;;;;;6.15;4.00;;;;;;;13.85;36.29;102677.28;5112616;28;20050;-76
2022/04/17 09:57:00;;;;;;;4.72;3.92;;;;;;;13.89;37.23;102676.38;5113631;28;20443;-76
2022/04/17 09:59:27;;;;;;;4.97;3.92;;;;;;;14.02;39.18;102674.50;5113832;27;20479;-76
2022/04/17 10:01:55;;;;;;;7.28;4.10;;;;;;;14.03;38.32;102664.03;5112313;28;20031;-76
2022/04/17 10:04:24;;;;;;;4.00;3.60;;;;;;;14.08;37.36;102656.09;5113673;28;20111;-76
2022/04/17 10:06:51;;;;;;;5.57;3.60;;;;;;;14.14;37.16;102658.66;5112823;28;20027;-76
2022/04/17 10:09:17;;;;;;;4.82;3.42;;;;;;;14.27;36.54;102656.81;5112935;28;20020;-76
2022/04/17 10:11:42;;;;;;;4.18;3.15;;;;;;;14.41;38.32;102646.16;5113194;28;20470;-76
2022/04/17 10:14:08;;;;;;;5.28;2.90;;;;;;;14.50;36.87;102646.06;5113604;28;20483;-76
2022/04/17 10:16:34;;;;;;;5.15;3.10;;;;;;;14.58;35.88;102635.50;5112438;28;20024;-76
2022/04/17 10:19:06;;;;;;;4.55;3.25;;;;;;;14.74;37.56;102635.28;5113052;28;20076;-76
2022/04/17 10:21:35;;;;;;;4.05;2.88;;;;;;;14.87;34.30;102637.78;5112861;28;20016;-76
2022/04/17 10:24:03;;;;;;;4.95;3.10;;;;;;;14.96;36.70;102630.66;5112189;28;20020;-76
2022/04/17 10:26:31;;;;;;;5.95;3.72;;;;;;;14.99;36.12;102624.50;5113169;28;20479;-76
2022/04/17 10:28:59;;;;;;;6.65;3.58;;;;;;;15.15;36.38;102609.38;5112240;28;20051;-76
2022/04/17 10:31:30;;;;;;;4.32;3.15;;;;;;;15.26;34.97;102617.97;5113036;28;20028;-76
2022/04/17 10:34:19;;;;;;;2.90;2.60;;;;;;;15.38;35.92;102622.19;5112439;28;20024;-77
2022/04/17 10:37:06;;;;;;;5.40;2.78;;;;;;;15.50;34.32;102606.22;5111911;28;20030;-76
2022/04/17 10:39:35;;;;;;;3.17;2.65;;;;;;;15.69;36.03;102596.28;5112858;28;20081;-76
2022/04/17 10:42:00;;;;;;;4.22;2.40;;;;;;;15.88;35.57;102595.06;5112671;28;20023;-76
2022/04/17 10:44:31;;;;;;;5.45;3.20;;;;;;;15.98;33.95;102594.91;5112106;28;20024;-76
2022/04/17 10:46:57;;;;;;;3.47;2.75;;;;;;;16.01;35.62;102579.94;5112691;28;20020;-77
2022/04/17 10:49:27;;;;;;;3.65;3.13;;;;;;;16.18;36.31;102573.50;5113059;28;20026;-76
2022/04/17 10:51:54;;;;;;;4.03;2.75;;;;;;;16.28;32.90;102572.41;5111226;28;20052;-76
2022/04/17 10:54:20;;;;;;;3.38;2.42;;;;;;;16.33;33.91;102566.16;5112092;28;20032;-77
2022/04/17 10:57:05;;;;;;;3.80;2.92;;;;;;;16.51;33.37;102562.31;5112020;28;20019;-76
2022/04/17 10:59:34;;;;;;;4.93;2.60;;;;;;;16.69;32.46;102554.91;5112543;28;20023;-77
2022/04/17 11:02:10;;;;;;;4.18;2.80;;;;;;;16.70;34.46;102556.63;5112331;28;20471;-77
2022/04/17 11:04:50;;;;;;;6.43;3.00;;;;;;;16.88;34.05;102553.63;5111648;28;20027;-76
2022/04/17 11:07:15;;;;;;;3.45;3.00;;;;;;;16.86;32.58;102555.41;5112400;28;20024;-77
2022/04/17 11:09:46;;;;;;;4.65;2.63;;;;;;;16.96;31.60;102550.81;5112388;28;20561;-76
2022/04/17 11:12:17;;;;;;;5.35;2.67;;;;;;;17.11;33.05;102554.88;5111864;28;20057;-77
2022/04/17 11:15:03;;;;;;;4.20;2.65;;;;;;;17.17;32.41;102546.81;5112052;28;20068;-76
2022/04/17 11:17:29;;;;;;;5.32;2.75;;;;;;;17.55;33.98;102552.00;5112492;28;20403;-76
2022/04/17 11:19:56;;;;;;;4.63;2.58;;;;;;;17.73;31.40;102548.03;5110998;28;20020;-77
2022/04/17 11:22:27;;;;;;;4.18;2.53;;;;;;;17.86;31.92;102534.56;5112410;28;20030;-77
2022/04/17 11:24:55;;;;;;;3.47;2.47;;;;;;;17.99;29.38;102533.31;5112066;28;20024;-76
2022/04/17 11:27:43;;;;;;;5.10;2.47;;;;;;;18.19;31.48;102535.38;5111478;28;20148;-77
2022/04/17 11:30:30;;;;;;;7.30;2.70;;;;;;;18.28;29.34;102518.38;5112267;28;20059;-77
2022/04/17 11:32:56;;;;;;;5.55;2.35;;;;;;;18.52;31.18;102514.19;5110981;28;20502;-77
2022/04/17 11:35:23;;;;;;;2.97;2.10;;;;;;;18.60;28.40;102525.34;5112281;28;20489;-77
2022/04/17 11:37:51;;;;;;;5.40;2.20;;;;;;;18.61;27.42;102511.25;5111623;28;20479;-77
2022/04/17 11:40:16;;;;;;;3.03;2.08;;;;;;;18.58;26.67;102514.84;5111609;28;20023;-77
2022/04/17 11:42:44;;;;;;;3.95;2.13;;;;;;;18.62;27.73;102512.97;5111511;28;20050;-77